AirNav  
 
 1551 users online  

1M3 Ardmore Airport
Ardmore, Alabama, USA

GOING TO ARDMORE?


FAA INFORMATION EFFECTIVE 04 JANUARY 2018

Location

FAA Identifier: 1M3
Lat/Long: 34-58-44.7000N / 086-52-59.8000W
34-58.745000N / 086-52.996667W
34.9790833 / -86.8832778
(estimated)
Elevation: 922 ft. / 281 m (estimated)
Variation: 00W (1985)
From city: 2 miles SW of ARDMORE, AL
Time zone: UTC -6 (UTC -5 during Daylight Saving Time)
Zip code: 35739

Airport Operations

Airport use: Open to the public
Activation date: 10/1964
Control tower: no
ARTCC: MEMPHIS CENTER
FSS: ANNISTON FLIGHT SERVICE STATION
NOTAMs facility: ANB (NOTAM-D service available)
Attendance: MON-FRI DAYLIGHT HOURS
Wind indicator: yes
Segmented circle: no

Airport Communications

CTAF: 122.9
WX AWOS-3 at GZS (14 nm NW): 118.275 (931-363-6760)
WX AWOS-3 at FYM (16 nm E): 135.275 (931-433-5916)
WX AWOS-3PT at MDQ (18 nm SE): 120.000 (256-829-1242)
WX ASOS at DCU (20 nm S): 118.375 (256-350-4270)

Nearby radio navigation aids

VOR radial/distance  VOR name  Freq  Var
RQZr310/16.4ROCKET VORTAC112.2002E
DCUr009/20.0DECATUR VOR/DME112.8001W
MSLr060/34.1MUSCLE SHOALS VORTAC116.5001E

 
NDB name  Hdg/Dist  Freq  Var  ID
CAPSHAW338/13.335001WCWH -.-. .-- ....
REDSTONE334/19.428704WHUA .... ..- .-

Airport Services

Parking: tiedowns

Runway Information

Runway 1/19

Dimensions: 2700 x 100 ft. / 823 x 30 m
Surface: turf, in fair condition
Runway edge markings: RY 01/19 MARKINGS FADED.
RY 01/19 MARKED WITH ORANGE CONES, THLD AND TWY MARKED WITH WHITE CONES.
Gradient: S
RUNWAY 1  RUNWAY 19
Latitude: 34-58.526242N34-58.962733N
Longitude: 086-53.050312W086-52.943867W
Elevation: 922.0 ft.901.0 ft.
Gradient: 0.8% UP
Traffic pattern: leftleft
Runway heading: 011 magnetic, 011 true191 magnetic, 191 true
Markings: NSTD, in poor conditionNSTD, in poor condition
Obstructions: 51 ft. tree, 474 ft. from runway, 120 ft. left of centerline, 9:1 slope to clear64 ft. tree, 1522 ft. from runway, 73 ft. right of centerline, 23:1 slope to clear

Airport Ownership and Management from official FAA records

Ownership: Privately-owned
Owner: LORETTA TRULSON
28825 AIRPORT LANE
ARDMORE, AL 35739
Phone 256-423-2736
Manager: LORETTA TRULSON
ARDMORE AVN, 28825 ARPT LANE
ARDMORE, AL 35739
Phone 256-423-2736

Instrument Procedures

There are no published instrument procedures at 1M3.

Some nearby airports with instrument procedures:

KGZS - Abernathy Field Airport (14 nm NW)
KFYM - Fayetteville Municipal Airport (16 nm E)
KMDQ - Huntsville Executive Airport / Tom Sharp Jr Field (18 nm SE)
KDCU - Pryor Field Regional Airport (20 nm S)
KHUA - Redstone Army Airfield (21 nm SE)
 
Loc | Ops | Rwys | IFR | FBO | Links
Com | Nav | Svcs | Stats | Notes


 
Area around 1M3 (Ardmore Airport)
 
Road maps at: MapQuest Bing Google
 
Aerial photo
WARNING: Photo may not be current or correct
Aerial photo of 1M3 (Ardmore Airport)
Photo courtesy of the Huntsville Flight Center
Photo taken 26-Nov-2008

Do you have a better or more recent aerial photo of Ardmore Airport that you would like to share? If so, please send us your photo.

 
Sectional chart

 
Airport distance calculator
Flying to Ardmore Airport? Find the distance to fly.

From to 1M3

Sunrise and sunset
Times for 22-Jan-2018
 Local
(UTC-6)
 Zulu
(UTC)
Morning civil twilight06:2612:26
Sunrise06:5412:54
Sunset17:0523:05
Evening civil twilight17:3223:32

Current date and time
Zulu (UTC)  22-Jan-2018 19:05:12
Local (UTC-6)  22-Jan-2018 13:05:12
 
METAR
KGZS 
14nm NW 
220525Z AUTO 15007KT 10SM CLR 14/07 A3003 RMK A01
KFYM 
16nm E 
221855Z AUTO 17012KT 10SM FEW008 FEW015 SCT020 13/12 A2983 RMK A01 P0002
KMDQ 
18nm E 
221855Z AUTO 15009KT 10SM SCT043 SCT090 SCT120 13/11 A2985 RMK AO2 P0003
KDCU 
20nm S 
221853Z AUTO 15017G23KT 10SM FEW015 SCT021 16/14 A2983 RMK AO2 RAE03 SLP100 P0000 T01560144
KHSV 
20nm S 
221853Z 16014G23KT 10SM FEW012 FEW080 BKN130 15/14 A2983 RMK AO2 RAE13B31E40 SLP099 P0001 T01500139 $
KHUA 
21nm SE 
221858Z AUTO 17011KT 8SM FEW011 BKN080 BKN100 OVC130 14/14 A2983 RMK AO2 RAE18 SLP100 P0002 T01390135
TAF
KHSV 
20nm S 
221750Z 2218/2318 18015G25KT 5SM SHRA BR VCTS BKN025CB OVC090 FM222000 19010G20KT P6SM VCSH BKN025 OVC090 FM230000 24008KT P6SM FEW040 SCT250 FM231300 30008G16KT P6SM SCT035 SCT250 FM231600 30008G16KT P6SM BKN030
NOTAMs
Click for the latest NOTAMs
NOTAMs are issued by the DoD/FAA and will open in a separate window not controlled by AirNav.

 

 
 

Aviation Businesses, Services, and Facilities

  
 Business Name 
 
 Contact 
 
 Services / Description 
 
Distance
 
Comments
  
Ardmore Aviation 256-423-2736
no information available

If you are affiliated with Ardmore Aviation and would like to show here your services, contact info, web link, logo, and more, click here
on airport  
   write
 

Would you like to see your business listed on this page?

 If your business provides an interesting product or service to pilots, flight crews, aircraft, or users of the Ardmore Airport, you should consider listing it here.  To start the listing process, click on the button below
 
Add a business
 

Other Pages about Ardmore Airport

Update a link
 
Copyright © AirNav, LLC. All rights reserved. Privacy Policy  Contact